Time;durP1;ratioP1;P1;durP2;ratioP2;P2;SDS_P1;SDS_P2;PMS_P1;PMS_P2;Temp;Humidity;BMP_temperature;BMP_pressure;BME280_temperature;BME280_humidity;BME280_pressure;Samples;Min_cycle;Max_cycle;Signal;HPM_P1;HPM_P2
2023/07/28 00:01:09;;;;;;;4.18;2.53;;;22.20;94.90;;;;;;5024938;28;20411;-61
2023/07/28 00:03:35;;;;;;;5.75;2.67;;;22.20;94.80;;;;;;5006975;28;20081;-62
2023/07/28 00:06:01;;;;;;;5.05;2.50;;;22.20;94.80;;;;;;5007320;28;20053;-70
2023/07/28 00:08:26;;;;;;;5.75;2.70;;;22.20;94.80;;;;;;5011042;28;20053;-64
2023/07/28 00:10:52;;;;;;;4.50;2.50;;;22.30;95.00;;;;;;5011397;28;20034;-61
2023/07/28 00:13:18;;;;;;;4.47;2.33;;;22.10;94.90;;;;;;5004497;28;20050;-62
2023/07/28 00:15:43;;;;;;;4.70;2.70;;;22.20;95.10;;;;;;5009237;28;20494;-69
2023/07/28 00:18:09;;;;;;;4.38;2.45;;;22.30;94.80;;;;;;5002747;28;20057;-69
2023/07/28 00:20:35;;;;;;;5.68;2.60;;;22.20;94.80;;;;;;5006599;28;20466;-70
2023/07/28 00:23:01;;;;;;;5.20;2.50;;;22.20;94.80;;;;;;4994804;28;20057;-70
2023/07/28 00:25:26;;;;;;;5.20;2.28;;;22.00;94.90;;;;;;5011213;28;20148;-68
2023/07/28 00:27:52;;;;;;;5.70;2.60;;;22.00;95.10;;;;;;5007926;28;20042;-67
2023/07/28 00:30:18;;;;;;;6.13;2.40;;;22.20;94.80;;;;;;5009807;28;20038;-65
2023/07/28 00:32:44;;;;;;;4.85;2.58;;;22.30;93.80;;;;;;5009791;28;20547;-69
2023/07/28 00:35:09;;;;;;;4.75;2.55;;;22.20;95.30;;;;;;5022957;28;20100;-69
2023/07/28 00:37:35;;;;;;;7.10;2.90;;;22.20;94.80;;;;;;5001471;28;20050;-62
2023/07/28 00:40:01;;;;;;;5.97;2.45;;;22.20;95.40;;;;;;5040314;28;20041;-62
2023/07/28 00:42:27;;;;;;;4.53;2.45;;;;;;;;;;5009597;28;20085;-70
2023/07/28 00:44:53;;;;;;;6.72;2.75;;;22.30;93.00;;;;;;5006794;28;20533;-63
2023/07/28 00:47:18;;;;;;;5.43;2.70;;;22.20;94.80;;;;;;5009609;28;20129;-61
2023/07/28 00:49:44;;;;;;;5.18;2.38;;;21.90;93.70;;;;;;4991075;28;20049;-70
2023/07/28 00:52:10;;;;;;;3.45;2.15;;;22.20;95.00;;;;;;5005205;28;20072;-61
2023/07/28 00:54:36;;;;;;;4.78;2.47;;;;;;;;;;5007678;28;20053;-61
2023/07/28 00:57:02;;;;;;;5.55;2.78;;;22.30;95.30;;;;;;5007954;28;20052;-61
2023/07/28 00:59:28;;;;;;;5.30;2.50;;;22.20;94.80;;;;;;5008904;28;20056;-61
2023/07/28 01:01:54;;;;;;;6.70;2.60;;;22.20;94.80;;;;;;4991066;28;20049;-61
2023/07/28 01:04:20;;;;;;;5.28;2.58;;;22.50;93.80;;;;;;5003076;28;20042;-61
2023/07/28 01:06:53;;;;;;;4.70;2.58;;;22.10;95.40;;;;;;5007648;28;20042;-72
2023/07/28 01:09:21;;;;;;;5.28;2.70;;;22.20;95.00;;;;;;5008155;28;20053;-61
2023/07/28 01:11:57;;;;;;;4.93;2.67;;;22.30;94.90;;;;;;5025037;28;20046;-71
2023/07/28 01:14:23;;;;;;;5.80;2.63;;;22.20;94.80;;;;;;5003982;28;20049;-61
2023/07/28 01:16:48;;;;;;;5.80;2.38;;;22.10;94.80;;;;;;5009086;28;20049;-71
2023/07/28 01:19:16;;;;;;;5.70;2.83;;;22.20;93.60;;;;;;5005036;28;20042;-71
2023/07/28 01:21:43;;;;;;;4.80;2.65;;;22.30;95.10;;;;;;5009883;28;20046;-70
2023/07/28 01:24:20;;;;;;;5.82;2.60;;;22.20;93.40;;;;;;5008813;28;20056;-70
2023/07/28 01:26:45;;;;;;;4.13;2.60;;;22.10;94.00;;;;;;5001683;28;20057;-71
2023/07/28 01:29:12;;;;;;;5.30;2.60;;;;;;;;;;5009135;28;20124;-71
2023/07/28 01:31:39;;;;;;;7.40;2.85;;;22.10;94.90;;;;;;5024603;28;20132;-69
2023/07/28 01:34:05;;;;;;;4.65;2.53;;;22.20;94.90;;;;;;4992826;28;20510;-71
2023/07/28 01:36:30;;;;;;;5.22;2.60;;;22.20;94.80;;;;;;5010138;28;20045;-70
2023/07/28 01:38:56;;;;;;;6.55;2.95;;;22.20;95.00;;;;;;4993773;28;20049;-61
2023/07/28 01:41:22;;;;;;;6.35;3.13;;;22.20;95.20;;;;;;5011239;28;20033;-61
2023/07/28 01:43:47;;;;;;;15.25;6.53;;;22.10;94.80;;;;;;5006105;28;20058;-61
2023/07/28 01:46:13;;;;;;;30.60;10.85;;;22.20;93.70;;;;;;5010785;28;20042;-63
2023/07/28 01:48:39;;;;;;;27.23;11.15;;;22.20;94.90;;;;;;5011183;28;20073;-62
2023/07/28 01:51:05;;;;;;;23.90;9.13;;;22.30;95.30;;;;;;5009932;28;20443;-62
2023/07/28 01:53:30;;;;;;;21.92;8.55;;;22.30;93.90;;;;;;5008140;28;20041;-62
2023/07/28 01:55:56;;;;;;;21.92;8.00;;;22.20;94.90;;;;;;5008124;28;20082;-60
2023/07/28 01:58:22;;;;;;;18.52;6.85;;;22.20;93.90;;;;;;5009672;28;20392;-69
2023/07/28 02:00:48;;;;;;;22.42;7.55;;;22.30;95.10;;;;;;5000827;28;20073;-62
2023/07/28 02:03:13;;;;;;;18.30;7.20;;;22.10;95.30;;;;;;5007266;28;20037;-61
2023/07/28 02:05:39;;;;;;;17.02;6.97;;;22.30;95.30;;;;;;5010344;28;20349;-61
2023/07/28 02:08:05;;;;;;;17.05;6.85;;;22.20;95.00;;;;;;5009576;28;20495;-61
2023/07/28 02:10:31;;;;;;;15.00;6.05;;;22.20;95.20;;;;;;5007661;28;20457;-62
2023/07/28 02:12:56;;;;;;;16.52;6.13;;;22.20;95.40;;;;;;5008573;28;20041;-61
2023/07/28 02:15:22;;;;;;;12.57;5.47;;;22.20;94.90;;;;;;4987502;28;20097;-61
2023/07/28 02:17:49;;;;;;;14.85;5.65;;;22.30;93.90;;;;;;5004498;28;20045;-62
2023/07/28 02:20:15;;;;;;;13.52;5.40;;;22.30;95.00;;;;;;5038548;28;20050;-63
2023/07/28 02:22:44;;;;;;;13.45;5.28;;;22.20;93.90;;;;;;5005467;28;20046;-63
2023/07/28 02:25:09;;;;;;;14.93;5.75;;;22.20;94.90;;;;;;4986925;28;20125;-63
2023/07/28 02:27:36;;;;;;;11.30;5.35;;;22.20;95.10;;;;;;5002854;28;20153;-63
2023/07/28 02:30:02;;;;;;;12.20;5.70;;;22.30;95.00;;;;;;5042061;28;20558;-62
2023/07/28 02:32:28;;;;;;;12.98;5.53;;;22.30;95.00;;;;;;5040897;28;20136;-63
2023/07/28 02:34:54;;;;;;;12.40;5.22;;;22.10;95.30;;;;;;5006029;28;20388;-62
2023/07/28 02:37:20;;;;;;;10.60;4.80;;;22.30;93.90;;;;;;5039150;28;20051;-61
2023/07/28 02:39:46;;;;;;;12.10;4.80;;;22.10;95.00;;;;;;5026192;28;20468;-68
2023/07/28 02:42:12;;;;;;;12.50;4.90;;;22.30;95.20;;;;;;4996353;28;20080;-65
2023/07/28 02:44:38;;;;;;;11.65;4.50;;;22.20;95.00;;;;;;5011457;28;20108;-65
2023/07/28 02:47:04;;;;;;;11.38;4.82;;;22.10;93.80;;;;;;5010858;28;20438;-67
2023/07/28 02:49:30;;;;;;;8.80;4.50;;;22.10;95.00;;;;;;5011828;28;20116;-69
2023/07/28 02:51:55;;;;;;;11.20;4.97;;;22.20;94.80;;;;;;5008546;28;20054;-68
2023/07/28 02:54:23;;;;;;;11.32;5.90;;;22.10;95.00;;;;;;5011080;28;20053;-70
2023/07/28 02:56:49;;;;;;;12.93;5.43;;;22.30;95.00;;;;;;4993506;28;20103;-71
2023/07/28 02:59:15;;;;;;;13.02;5.22;;;22.00;93.90;;;;;;5009951;28;20081;-66
2023/07/28 03:01:41;;;;;;;17.15;6.53;;;22.30;95.10;;;;;;5010421;28;20077;-69
2023/07/28 03:04:06;;;;;;;12.80;5.15;;;22.30;95.40;;;;;;5011681;28;20056;-69
2023/07/28 03:06:32;;;;;;;11.52;4.97;;;22.10;95.40;;;;;;5012558;28;20104;-69
2023/07/28 03:09:01;;;;;;;9.93;5.22;;;22.00;93.90;;;;;;5012357;28;20405;-69
2023/07/28 03:11:27;;;;;;;12.13;4.75;;;;;;;;;;5009976;28;20056;-71
2023/07/28 03:13:53;;;;;;;11.63;4.88;;;22.10;95.00;;;;;;5011232;28;20046;-70
2023/07/28 03:16:19;;;;;;;10.68;5.15;;;22.10;94.00;;;;;;5008502;28;20116;-67
2023/07/28 03:18:45;;;;;;;10.75;4.95;;;22.20;95.00;;;;;;5009349;28;20117;-69
2023/07/28 03:21:10;;;;;;;10.05;4.40;;;22.10;95.00;;;;;;4991100;28;20085;-64
2023/07/28 03:23:36;;;;;;;10.63;4.47;;;22.20;94.00;;;;;;5011286;28;20125;-69
2023/07/28 03:26:02;;;;;;;11.27;4.80;;;22.20;95.30;;;;;;5009442;28;20116;-71
2023/07/28 03:28:28;;;;;;;11.00;4.53;;;22.00;95.20;;;;;;5010493;28;20054;-69
2023/07/28 03:30:53;;;;;;;8.40;3.85;;;22.30;95.00;;;;;;5012472;28;20061;-70
2023/07/28 03:33:19;;;;;;;9.15;4.20;;;22.20;95.00;;;;;;5008058;28;20049;-72
2023/07/28 03:35:45;;;;;;;9.75;4.15;;;22.10;93.90;;;;;;5012495;28;20038;-69
2023/07/28 03:38:10;;;;;;;13.30;4.50;;;22.20;95.10;;;;;;5010782;28;20033;-70
2023/07/28 03:40:36;;;;;;;9.50;4.20;;;22.00;95.10;;;;;;5011580;28;20037;-70
2023/07/28 03:43:02;;;;;;;8.38;3.85;;;22.40;94.00;;;;;;5009849;28;20061;-71
2023/07/28 03:45:28;;;;;;;10.50;3.85;;;22.10;95.00;;;;;;5007880;28;20415;-69
2023/07/28 03:47:53;;;;;;;8.35;4.05;;;22.30;95.00;;;;;;5011685;28;20568;-70
2023/07/28 03:50:19;;;;;;;7.78;3.83;;;22.20;95.10;;;;;;5009660;28;20057;-70
2023/07/28 03:52:45;;;;;;;7.88;3.78;;;22.10;95.00;;;;;;5009931;28;20049;-61
2023/07/28 03:55:10;;;;;;;6.95;3.50;;;22.20;94.00;;;;;;5007807;28;20046;-71
2023/07/28 03:57:37;;;;;;;8.68;3.67;;;;;;;;;;5010750;28;20057;-70
2023/07/28 04:00:03;;;;;;;7.85;3.50;;;22.20;93.70;;;;;;5007547;28;20041;-70
2023/07/28 04:02:29;;;;;;;7.50;3.80;;;22.20;93.90;;;;;;5007489;28;20203;-70
2023/07/28 04:04:55;;;;;;;7.47;3.35;;;22.10;95.00;;;;;;4987722;28;20589;-70
2023/07/28 04:07:21;;;;;;;8.70;3.55;;;22.00;95.30;;;;;;5008999;28;20404;-71
2023/07/28 04:09:46;;;;;;;9.13;3.63;;;22.20;94.00;;;;;;5041900;28;20045;-70
2023/07/28 04:12:12;;;;;;;7.82;3.50;;;22.30;95.40;;;;;;5006711;28;20047;-71
2023/07/28 04:14:38;;;;;;;7.53;3.47;;;22.30;95.10;;;;;;5008999;28;20041;-69
2023/07/28 04:17:04;;;;;;;6.65;3.67;;;22.20;95.10;;;;;;5006014;28;20034;-67
2023/07/28 04:19:30;;;;;;;8.05;3.60;;;22.20;95.10;;;;;;5003789;28;20384;-67
2023/07/28 04:21:57;;;;;;;8.43;3.78;;;22.20;95.40;;;;;;5008161;28;20049;-65
2023/07/28 04:24:22;;;;;;;8.93;3.30;;;22.20;95.40;;;;;;5026023;28;20054;-66
2023/07/28 04:26:51;;;;;;;6.72;3.00;;;22.50;95.60;;;;;;5012258;28;20124;-65
2023/07/28 04:29:17;;;;;;;7.68;3.33;;;22.40;95.10;;;;;;5008199;28;20411;-65
2023/07/28 04:31:43;;;;;;;7.50;3.42;;;22.40;94.10;;;;;;5012056;28;20048;-64
2023/07/28 04:34:08;;;;;;;8.57;3.42;;;22.20;94.00;;;;;;4991796;28;20436;-69
2023/07/28 04:36:34;;;;;;;8.35;3.33;;;22.10;95.40;;;;;;5010933;28;20204;-68
2023/07/28 04:39:00;;;;;;;7.00;3.10;;;22.60;95.70;;;;;;5011242;28;20056;-70
2023/07/28 04:41:25;;;;;;;7.93;3.22;;;22.20;95.10;;;;;;5010091;28;20499;-68
2023/07/28 04:43:52;;;;;;;5.57;3.03;;;;;;;;;;5010001;28;20060;-68
2023/07/28 04:46:17;;;;;;;7.32;3.03;;;22.20;95.10;;;;;;5002406;28;20062;-69
2023/07/28 04:48:43;;;;;;;6.85;2.92;;;22.10;95.20;;;;;;5009151;28;20124;-70
2023/07/28 04:51:09;;;;;;;8.38;3.42;;;22.20;95.10;;;;;;5004859;28;20089;-71
2023/07/28 04:53:34;;;;;;;8.32;3.20;;;22.30;94.10;;;;;;5008742;28;20057;-71
2023/07/28 04:56:00;;;;;;;7.72;2.95;;;22.20;95.20;;;;;;5008702;28;20049;-71
2023/07/28 04:58:26;;;;;;;8.05;3.17;;;22.30;95.10;;;;;;5008141;28;20188;-71
2023/07/28 05:00:52;;;;;;;6.85;3.25;;;22.30;95.20;;;;;;4991317;28;20484;-71
2023/07/28 05:03:18;;;;;;;10.45;3.33;;;22.10;95.10;;;;;;4992743;28;20125;-65
2023/07/28 05:05:44;;;;;;;6.32;2.90;;;22.30;94.40;;;;;;5024390;28;20774;-70
2023/07/28 05:08:10;;;;;;;7.85;3.10;;;22.20;95.10;;;;;;5003508;28;20408;-71
2023/07/28 05:10:35;;;;;;;6.30;2.88;;;22.30;95.20;;;;;;5006267;28;20084;-70
2023/07/28 05:13:04;;;;;;;5.60;2.88;;;22.20;95.10;;;;;;5009193;28;20050;-71
2023/07/28 05:15:29;;;;;;;7.07;3.00;;;22.30;95.20;;;;;;5005517;28;20526;-67
2023/07/28 05:17:55;;;;;;;5.93;2.90;;;22.30;95.20;;;;;;5005115;28;20050;-65
2023/07/28 05:20:21;;;;;;;5.60;3.10;;;22.10;95.10;;;;;;5024256;28;20558;-71
2023/07/28 05:22:47;;;;;;;7.78;3.15;;;22.10;94.00;;;;;;5008279;28;20042;-69
2023/07/28 05:25:12;;;;;;;5.47;3.08;;;22.10;95.10;;;;;;5021370;28;20053;-71
2023/07/28 05:27:38;;;;;;;7.80;2.90;;;22.20;95.40;;;;;;5006311;28;20120;-71
2023/07/28 05:30:05;;;;;;;6.15;2.97;;;22.10;95.10;;;;;;5008095;28;20121;-71
2023/07/28 05:32:31;;;;;;;7.82;2.80;;;22.20;95.40;;;;;;5008586;28;20061;-71
2023/07/28 05:34:57;;;;;;;6.35;2.90;;;22.40;95.10;;;;;;5004939;28;20042;-70
2023/07/28 05:37:23;;;;;;;7.00;3.03;;;22.30;95.10;;;;;;5004538;28;20127;-68
2023/07/28 05:39:48;;;;;;;7.20;2.97;;;22.40;94.10;;;;;;5008414;28;20583;-62
2023/07/28 05:42:14;;;;;;;7.40;3.05;;;22.30;95.10;;;;;;5005412;28;20079;-72
2023/07/28 05:44:40;;;;;;;8.57;3.10;;;22.40;95.40;;;;;;5008902;28;20500;-61
2023/07/28 05:47:06;;;;;;;6.38;2.85;;;22.30;94.00;;;;;;5006563;28;20046;-62
2023/07/28 05:49:32;;;;;;;6.65;3.03;;;22.30;95.10;;;;;;5033348;28;20435;-63
2023/07/28 05:51:58;;;;;;;6.10;2.83;;;22.30;95.10;;;;;;4991900;28;20395;-63
2023/07/28 05:54:23;;;;;;;5.25;2.47;;;22.30;94.00;;;;;;5006745;28;20045;-63
2023/07/28 05:56:49;;;;;;;5.75;2.70;;;22.30;95.10;;;;;;5007970;28;20042;-62
2023/07/28 05:59:15;;;;;;;7.07;2.85;;;22.40;95.50;;;;;;5002081;28;20563;-68
2023/07/28 06:01:41;;;;;;;5.55;2.63;;;22.50;95.10;;;;;;5005089;28;20045;-68
2023/07/28 06:04:07;;;;;;;6.78;2.80;;;22.50;94.00;;;;;;5008419;28;20042;-70
2023/07/28 06:06:32;;;;;;;5.63;2.55;;;22.40;95.10;;;;;;5007338;28;20041;-66
2023/07/28 06:08:58;;;;;;;7.45;2.63;;;22.40;95.10;;;;;;5008352;28;20085;-62
2023/07/28 06:11:24;;;;;;;5.90;2.78;;;22.30;95.20;;;;;;5007120;28;20088;-61
2023/07/28 06:13:50;;;;;;;5.35;2.40;;;22.40;95.10;;;;;;5002494;28;20161;-64
2023/07/28 06:16:16;;;;;;;6.15;2.60;;;22.50;95.10;;;;;;5010681;28;20041;-66
2023/07/28 06:18:41;;;;;;;5.63;3.03;;;22.40;95.10;;;;;;5012487;28;20050;-62
2023/07/28 06:21:07;;;;;;;5.97;2.40;;;;;;;;;;5006497;28;20053;-69
2023/07/28 06:23:33;;;;;;;5.88;2.83;;;22.30;95.00;;;;;;5012904;28;20394;-63
2023/07/28 06:25:59;;;;;;;5.15;2.30;;;22.40;94.00;;;;;;5014273;28;20049;-69
2023/07/28 06:28:25;;;;;;;6.03;2.40;;;22.30;95.20;;;;;;5012934;28;20052;-69
2023/07/28 06:30:57;;;;;;;7.35;2.50;;;22.40;95.00;;;;;;5007508;28;20065;-68
2023/07/28 06:33:23;;;;;;;6.22;2.83;;;22.50;95.00;;;;;;5006479;28;20140;-71
2023/07/28 06:35:49;;;;;;;6.22;2.58;;;22.50;95.30;;;;;;5008839;28;20363;-72
2023/07/28 06:38:15;;;;;;;6.47;2.20;;;22.40;95.10;;;;;;5009483;28;20041;-67
2023/07/28 06:40:40;;;;;;;5.57;2.33;;;22.60;94.30;;;;;;5010925;28;20049;-70
2023/07/28 06:43:07;;;;;;;6.22;2.80;;;22.50;95.40;;;;;;5011231;28;20438;-65
2023/07/28 06:45:33;;;;;;;6.57;2.97;;;22.40;95.00;;;;;;5007921;28;20491;-73
2023/07/28 06:47:59;;;;;;;4.78;2.20;;;22.50;94.00;;;;;;5012314;28;20124;-73
2023/07/28 06:50:25;;;;;;;5.70;2.67;;;22.60;94.00;;;;;;5006193;28;20046;-62
2023/07/28 06:52:51;;;;;;;5.93;2.47;;;22.70;95.10;;;;;;5008640;28;20067;-68
2023/07/28 06:55:18;;;;;;;5.18;2.42;;;22.60;94.00;;;;;;5012210;28;20120;-61
2023/07/28 06:57:43;;;;;;;7.15;2.55;;;22.70;95.00;;;;;;5011261;28;20060;-61
2023/07/28 07:00:10;;;;;;;7.97;2.50;;;22.60;95.00;;;;;;5012203;28;20488;-67
2023/07/28 07:02:36;;;;;;;6.10;2.50;;;22.60;95.10;;;;;;5025122;28;20076;-62
2023/07/28 07:05:02;;;;;;;7.55;2.85;;;22.60;95.30;;;;;;5007262;28;20034;-61
2023/07/28 07:07:28;;;;;;;5.38;3.05;;;22.80;95.00;;;;;;5008871;28;20041;-61
2023/07/28 07:09:53;;;;;;;7.13;2.92;;;22.70;95.40;;;;;;5042116;28;20046;-62
2023/07/28 07:12:21;;;;;;;6.85;2.80;;;22.60;93.90;;;;;;4994149;28;20125;-61
2023/07/28 07:14:47;;;;;;;6.15;2.88;;;22.60;93.90;;;;;;4992094;28;20053;-62
2023/07/28 07:17:13;;;;;;;5.95;2.90;;;22.90;95.10;;;;;;5041729;28;20078;-73
2023/07/28 07:19:39;;;;;;;5.22;2.58;;;22.50;93.70;;;;;;5005617;28;20085;-62
2023/07/28 07:22:05;;;;;;;6.40;2.80;;;23.00;94.90;;;;;;5006509;28;20054;-74
2023/07/28 07:24:31;;;;;;;5.88;3.00;;;22.90;93.70;;;;;;5027094;28;20053;-72
2023/07/28 07:26:57;;;;;;;5.30;2.67;;;22.70;95.10;;;;;;5004901;28;20046;-72
2023/07/28 07:29:23;;;;;;;6.65;3.10;;;23.00;95.00;;;;;;5013309;28;20038;-72
2023/07/28 07:31:54;;;;;;;6.38;2.90;;;22.90;95.00;;;;;;5009687;28;20045;-73
2023/07/28 07:34:20;;;;;;;5.32;2.90;;;23.30;93.80;;;;;;5012578;28;20042;-74
2023/07/28 07:36:46;;;;;;;5.90;2.85;;;23.00;94.80;;;;;;5012021;28;21632;-65
2023/07/28 07:39:12;;;;;;;5.60;2.92;;;23.20;94.70;;;;;;5010383;28;20046;-75
2023/07/28 07:41:37;;;;;;;6.57;3.20;;;23.20;93.60;;;;;;5013635;28;20046;-67
2023/07/28 07:44:03;;;;;;;7.30;3.20;;;23.20;93.50;;;;;;5008570;28;20065;-65
2023/07/28 07:46:29;;;;;;;5.25;2.75;;;23.30;93.40;;;;;;5009747;28;20073;-67
2023/07/28 07:48:55;;;;;;;4.43;2.70;;;23.20;93.50;;;;;;5011564;28;20491;-63
2023/07/28 07:51:20;;;;;;;5.00;2.95;;;23.10;94.50;;;;;;5011769;28;20038;-67
2023/07/28 07:53:46;;;;;;;6.32;2.67;;;23.10;94.80;;;;;;5011894;28;20049;-62
2023/07/28 07:56:12;;;;;;;5.55;2.95;;;23.40;94.50;;;;;;5014068;28;20084;-65
2023/07/28 07:58:38;;;;;;;5.20;2.67;;;23.40;94.90;;;;;;5008049;28;20104;-75
2023/07/28 08:01:04;;;;;;;6.40;2.90;;;23.00;93.40;;;;;;5008300;28;20105;-75
2023/07/28 08:03:30;;;;;;;4.82;2.72;;;23.30;93.50;;;;;;5012004;28;20057;-73
2023/07/28 08:05:57;;;;;;;5.78;2.72;;;23.00;93.40;;;;;;5014228;28;20144;-73
2023/07/28 08:08:23;;;;;;;6.35;3.10;;;23.30;94.60;;;;;;5009074;28;20037;-72
2023/07/28 08:10:50;;;;;;;7.07;2.90;;;23.30;93.40;;;;;;5011206;28;20097;-75
2023/07/28 08:13:15;;;;;;;5.53;2.78;;;23.40;94.60;;;;;;5012149;28;20077;-66
2023/07/28 08:15:45;;;;;;;5.32;2.58;;;23.60;93.30;;;;;;5012083;28;20450;-73
2023/07/28 08:18:13;;;;;;;6.15;2.78;;;23.20;93.20;;;;;;5011731;28;20052;-75
2023/07/28 08:20:39;;;;;;;6.28;2.55;;;23.50;93.30;;;;;;5010579;28;20038;-64
2023/07/28 08:23:05;;;;;;;5.45;2.78;;;23.50;93.10;;;;;;5012465;28;20137;-72
2023/07/28 08:25:31;;;;;;;6.03;3.10;;;23.60;93.00;;;;;;5011289;28;20037;-71
2023/07/28 08:27:57;;;;;;;5.82;2.63;;;23.70;92.80;;;;;;5012999;28;20042;-74
2023/07/28 08:30:22;;;;;;;6.13;2.85;;;24.00;92.80;;;;;;5013816;28;20070;-74
2023/07/28 08:32:48;;;;;;;6.65;2.67;;;23.80;92.70;;;;;;5000484;28;20116;-67
2023/07/28 08:35:14;;;;;;;5.28;2.95;;;23.70;92.60;;;;;;5011369;28;20125;-73
2023/07/28 08:37:40;;;;;;;5.00;2.70;;;23.60;92.50;;;;;;5011039;28;20461;-64
2023/07/28 08:40:07;;;;;;;6.28;2.70;;;24.10;92.60;;;;;;5012363;28;20046;-69
2023/07/28 08:42:39;;;;;;;6.43;2.83;;;24.00;93.80;;;;;;5008960;28;20137;-72
2023/07/28 08:45:07;;;;;;;6.32;2.75;;;23.90;92.10;;;;;;5012307;28;20557;-72
2023/07/28 08:47:34;;;;;;;6.70;2.97;;;24.10;92.50;;;;;;5012023;28;20042;-63
2023/07/28 08:50:00;;;;;;;5.18;2.70;;;23.70;92.60;;;;;;4995673;28;20444;-67
2023/07/28 08:52:25;;;;;;;6.70;3.03;;;23.60;93.70;;;;;;4991085;28;20141;-62
2023/07/28 08:54:51;;;;;;;4.55;2.80;;;23.60;92.40;;;;;;5010948;28;20104;-64
2023/07/28 08:57:19;;;;;;;5.88;2.70;;;23.90;92.60;;;;;;5012383;28;20038;-73
2023/07/28 08:59:47;;;;;;;5.93;2.88;;;23.80;92.50;;;;;;5028814;28;20121;-63
2023/07/28 09:02:17;;;;;;;5.43;2.63;;;24.00;92.60;;;;;;4989825;28;20042;-69
2023/07/28 09:04:44;;;;;;;5.43;3.00;;;24.00;92.60;;;;;;4993422;28;20119;-67
2023/07/28 09:07:10;;;;;;;6.50;2.92;;;24.00;94.00;;;;;;5000807;28;20125;-67
2023/07/28 09:09:38;;;;;;;14.05;3.40;;;23.90;92.40;;;;;;5007590;28;20583;-68
2023/07/28 09:12:04;;;;;;;10.82;3.25;;;24.10;92.50;;;;;;4992154;28;20042;-66
2023/07/28 09:14:30;;;;;;;8.45;3.10;;;24.10;92.30;;;;;;5010708;28;20054;-66
2023/07/28 09:17:05;;;;;;;8.55;3.35;;;23.90;92.40;;;;;;5024536;28;20117;-65
2023/07/28 09:19:31;;;;;;;11.00;3.42;;;23.90;92.40;;;;;;5028212;28;20503;-64
2023/07/28 09:22:00;;;;;;;9.18;3.72;;;23.90;92.30;;;;;;5009990;28;20160;-64
2023/07/28 09:24:33;;;;;;;7.00;3.17;;;24.20;92.50;;;;;;4992131;28;20057;-64
2023/07/28 09:26:59;;;;;;;7.68;3.42;;;23.90;92.40;;;;;;4997656;28;20045;-63
2023/07/28 09:29:24;;;;;;;9.25;3.22;;;24.30;92.40;;;;;;5012601;28;20133;-65
2023/07/28 09:31:50;;;;;;;9.52;3.60;;;24.00;92.30;;;;;;5010087;28;20177;-65
2023/07/28 09:34:26;;;;;;;7.75;3.60;;;24.00;92.40;;;;;;5011294;28;20527;-64
2023/07/28 09:36:59;;;;;;;6.03;3.00;;;24.00;92.60;;;;;;5008664;28;20399;-64
2023/07/28 09:39:25;;;;;;;8.65;3.42;;;24.20;93.60;;;;;;5008703;28;20052;-63
2023/07/28 09:41:51;;;;;;;9.13;3.30;;;24.00;92.30;;;;;;4993927;28;20041;-64
2023/07/28 09:44:17;;;;;;;7.47;3.30;;;24.40;92.40;;;;;;5008906;28;20053;-66
2023/07/28 09:46:56;;;;;;;6.75;3.33;;;24.40;92.30;;;;;;5007155;28;20065;-62
2023/07/28 09:49:37;;;;;;;6.75;3.33;;;24.10;91.90;;;;;;5011378;28;20407;-63
2023/07/28 09:52:09;;;;;;;9.02;3.70;;;24.20;92.50;;;;;;4998292;28;20188;-62
2023/07/28 09:54:40;;;;;;;5.63;3.40;;;24.10;92.50;;;;;;5016589;28;20085;-63
2023/07/28 09:57:18;;;;;;;6.20;3.70;;;24.20;92.50;;;;;;5006877;28;20046;-63
2023/07/28 09:59:45;;;;;;;8.13;3.50;;;24.20;92.50;;;;;;5011934;28;20495;-70
2023/07/28 10:02:10;;;;;;;7.43;3.78;;;24.60;92.60;;;;;;5009968;28;20050;-69
2023/07/28 10:04:36;;;;;;;8.75;4.18;;;24.10;92.40;;;;;;4992486;28;20525;-61
2023/07/28 10:07:04;;;;;;;8.55;3.80;;;24.50;93.90;;;;;;5014366;28;20046;-61
2023/07/28 10:09:30;;;;;;;12.57;4.00;;;24.40;92.40;;;;;;5014744;28;20373;-61
2023/07/28 10:11:56;;;;;;;10.88;4.03;;;24.40;92.50;;;;;;5013226;28;20057;-62
2023/07/28 10:14:32;;;;;;;8.23;3.40;;;24.40;93.70;;;;;;5010190;28;20052;-62
2023/07/28 10:16:58;;;;;;;10.55;4.10;;;24.20;92.60;;;;;;5015063;28;20045;-62
2023/07/28 10:19:31;;;;;;;6.80;3.67;;;24.70;92.40;;;;;;5013788;28;20042;-62
2023/07/28 10:22:10;;;;;;;6.93;3.80;;;24.30;92.50;;;;;;5013515;28;20052;-63
2023/07/28 10:24:55;;;;;;;8.60;3.97;;;24.60;91.90;;;;;;5007782;28;20507;-61
2023/07/28 10:27:36;;;;;;;5.85;3.42;;;24.50;92.60;;;;;;4996800;28;20447;-62
2023/07/28 10:30:04;;;;;;;6.47;3.47;;;24.50;93.50;;;;;;4995793;28;20169;-61
2023/07/28 10:32:40;;;;;;;5.70;2.92;;;24.60;92.20;;;;;;5004020;28;20395;-61
2023/07/28 10:35:27;;;;;;;6.88;3.15;;;24.80;92.40;;;;;;5028328;28;20053;-62
2023/07/28 10:37:56;;;;;;;5.07;2.83;;;24.70;92.30;;;;;;4996586;28;20432;-61
2023/07/28 10:40:34;;;;;;;5.25;2.58;;;24.60;92.30;;;;;;4998028;28;20452;-62
2023/07/28 10:43:00;;;;;;;6.55;3.28;;;24.70;91.60;;;;;;5007108;28;20064;-61
2023/07/28 10:45:28;;;;;;;4.63;2.63;;;24.80;92.10;;;;;;5028395;28;20549;-62
2023/07/28 10:47:55;;;;;;;8.60;3.17;;;24.60;92.20;;;;;;5024764;28;20046;-62
2023/07/28 10:50:24;;;;;;;4.47;2.80;;;24.90;92.30;;;;;;5016177;28;20073;-62
2023/07/28 10:52:50;;;;;;;6.53;2.78;;;24.60;92.20;;;;;;5013386;28;20060;-61
2023/07/28 10:55:20;;;;;;;5.22;2.60;;;24.80;92.10;;;;;;5004395;28;20425;-61
2023/07/28 10:57:46;;;;;;;4.50;2.40;;;24.60;91.50;;;;;;5002320;28;20089;-62
2023/07/28 11:00:15;;;;;;;6.47;2.72;;;24.70;92.00;;;;;;5013456;28;20121;-61
2023/07/28 11:02:44;;;;;;;4.07;2.65;;;24.80;91.90;;;;;;5012969;28;20046;-61
2023/07/28 11:05:14;;;;;;;5.25;2.50;;;24.60;92.10;;;;;;5010109;28;20046;-61
2023/07/28 11:07:43;;;;;;;4.25;2.40;;;24.70;91.90;;;;;;5014097;28;20056;-61
2023/07/28 11:10:13;;;;;;;5.82;2.67;;;24.70;92.20;;;;;;5014506;28;20120;-62
2023/07/28 11:12:46;;;;;;;4.03;2.58;;;24.60;91.90;;;;;;5008039;28;20045;-62
2023/07/28 11:15:13;;;;;;;5.07;2.63;;;24.70;92.00;;;;;;5004883;28;20490;-62
2023/07/28 11:17:40;;;;;;;4.90;2.42;;;24.80;91.90;;;;;;5014201;28;20399;-61
2023/07/28 11:20:19;;;;;;;7.45;2.85;;;24.90;91.90;;;;;;5010228;28;20135;-64
2023/07/28 11:22:46;;;;;;;9.68;2.70;;;25.10;91.50;;;;;;5006730;28;20128;-62
2023/07/28 11:25:12;;;;;;;6.82;2.33;;;24.60;91.90;;;;;;5013532;28;20055;-62
2023/07/28 11:27:39;;;;;;;10.23;3.35;;;24.70;91.80;;;;;;5014912;28;20041;-62
2023/07/28 11:30:09;;;;;;;10.00;2.70;;;24.80;91.80;;;;;;5013794;28;20050;-62
2023/07/28 11:32:36;;;;;;;8.90;2.80;;;24.70;91.20;;;;;;5014539;28;20562;-62
2023/07/28 11:35:09;;;;;;;7.25;2.88;;;24.60;91.80;;;;;;5015014;28;20129;-62
2023/07/28 11:37:35;;;;;;;8.23;2.60;;;24.80;91.80;;;;;;5011942;28;20499;-62
2023/07/28 11:40:02;;;;;;;8.77;2.45;;;24.50;93.10;;;;;;4995462;28;20121;-62
2023/07/28 11:42:29;;;;;;;6.40;2.55;;;24.60;91.70;;;;;;5010112;28;20066;-62
2023/07/28 11:44:55;;;;;;;7.28;2.30;;;24.80;92.00;;;;;;5010266;28;20065;-62
2023/07/28 11:47:20;;;;;;;6.13;2.50;;;24.50;91.60;;;;;;4994849;28;20046;-62
2023/07/28 11:49:47;;;;;;;5.65;2.60;;;24.70;93.20;;;;;;4996042;28;20100;-62
2023/07/28 11:52:13;;;;;;;3.67;2.05;;;24.60;91.80;;;;;;5013383;28;20046;-62
2023/07/28 11:54:39;;;;;;;7.22;2.78;;;24.60;91.70;;;;;;5014328;28;20045;-62
2023/07/28 11:57:05;;;;;;;4.75;2.42;;;24.70;91.50;;;;;;4994545;28;20043;-62
2023/07/28 11:59:31;;;;;;;4.93;2.33;;;24.70;91.60;;;;;;5012756;28;20077;-62
2023/07/28 12:01:58;;;;;;;4.78;2.20;;;24.80;91.60;;;;;;5012555;28;20077;-62
2023/07/28 12:04:31;;;;;;;5.60;2.45;;;24.80;91.70;;;;;;5014269;28;20061;-62
2023/07/28 12:07:00;;;;;;;6.72;2.30;;;24.70;91.00;;;;;;5014340;28;20399;-62
2023/07/28 12:09:26;;;;;;;3.55;2.30;;;24.80;91.70;;;;;;5013154;28;20068;-62
2023/07/28 12:11:52;;;;;;;4.53;2.22;;;24.50;91.50;;;;;;5012287;28;20492;-66
2023/07/28 12:14:33;;;;;;;3.63;2.17;;;24.50;91.40;;;;;;4992385;28;20042;-65
2023/07/28 12:16:59;;;;;;;5.50;2.15;;;25.00;91.20;;;;;;5001940;28;20128;-64
2023/07/28 12:19:25;;;;;;;4.70;2.20;;;24.60;91.60;;;;;;5012383;28;20077;-65
2023/07/28 12:21:51;;;;;;;4.45;2.33;;;24.90;91.60;;;;;;5013757;28;20080;-68
2023/07/28 12:24:17;;;;;;;3.80;2.25;;;24.40;91.50;;;;;;5012134;28;20380;-62
2023/07/28 12:26:42;;;;;;;3.47;2.00;;;24.80;91.60;;;;;;5013974;28;20038;-62
2023/07/28 12:29:08;;;;;;;3.95;2.13;;;24.70;93.10;;;;;;5009801;28;20039;-62
2023/07/28 12:31:34;;;;;;;5.07;2.10;;;24.90;91.60;;;;;;4994307;28;20050;-62
2023/07/28 12:34:00;;;;;;;4.78;2.10;;;24.70;91.40;;;;;;4993945;28;20054;-63
2023/07/28 12:36:25;;;;;;;4.72;2.38;;;24.80;91.50;;;;;;5012217;28;20084;-62
2023/07/28 12:38:51;;;;;;;5.63;2.20;;;24.70;91.50;;;;;;5013288;28;20049;-62
2023/07/28 12:41:17;;;;;;;4.00;2.20;;;24.70;91.50;;;;;;5013702;28;20057;-62
2023/07/28 12:43:43;;;;;;;3.83;2.20;;;24.80;91.40;;;;;;5013452;28;20045;-62
2023/07/28 12:46:09;;;;;;;3.53;2.03;;;24.80;91.40;;;;;;5004023;28;20054;-62